sensor_id;sensor_type;location;lat;lon;timestamp;P1;durP1;ratioP1;P2;durP2;ratioP2
36651;SDS011;53334;51.976;20.144;2022-08-19T00:00:30;11.35;;;10.35;;
36651;SDS011;53334;51.976;20.144;2022-08-19T00:03:04;14.65;;;11.20;;
36651;SDS011;53334;51.976;20.144;2022-08-19T00:05:40;12.57;;;11.20;;
36651;SDS011;53334;51.976;20.144;2022-08-19T00:08:14;14.73;;;12.05;;
36651;SDS011;53334;51.976;20.144;2022-08-19T00:10:48;12.90;;;11.70;;
36651;SDS011;53334;51.976;20.144;2022-08-19T00:13:22;14.32;;;11.80;;
36651;SDS011;53334;51.976;20.144;2022-08-19T00:15:58;12.57;;;11.32;;
36651;SDS011;53334;51.976;20.144;2022-08-19T00:18:32;13.07;;;11.77;;
36651;SDS011;53334;51.976;20.144;2022-08-19T00:21:07;11.82;;;10.02;;
36651;SDS011;53334;51.976;20.144;2022-08-19T00:23:41;13.05;;;11.75;;
36651;SDS011;53334;51.976;20.144;2022-08-19T00:26:15;13.05;;;11.77;;
36651;SDS011;53334;51.976;20.144;2022-08-19T00:28:50;15.35;;;11.45;;
36651;SDS011;53334;51.976;20.144;2022-08-19T00:31:25;16.27;;;11.82;;
36651;SDS011;53334;51.976;20.144;2022-08-19T00:34:00;14.00;;;10.30;;
36651;SDS011;53334;51.976;20.144;2022-08-19T00:36:34;13.98;;;11.52;;
36651;SDS011;53334;51.976;20.144;2022-08-19T00:39:09;12.88;;;11.68;;
36651;SDS011;53334;51.976;20.144;2022-08-19T00:41:44;13.35;;;12.00;;
36651;SDS011;53334;51.976;20.144;2022-08-19T00:44:20;17.33;;;11.75;;
36651;SDS011;53334;51.976;20.144;2022-08-19T00:46:59;12.95;;;11.65;;
36651;SDS011;53334;51.976;20.144;2022-08-19T00:49:35;11.75;;;10.55;;
36651;SDS011;53334;51.976;20.144;2022-08-19T00:52:13;12.45;;;11.13;;
36651;SDS011;53334;51.976;20.144;2022-08-19T00:54:49;13.88;;;11.05;;
36651;SDS011;53334;51.976;20.144;2022-08-19T00:57:26;16.27;;;11.35;;
36651;SDS011;53334;51.976;20.144;2022-08-19T01:00:05;13.95;;;12.18;;
36651;SDS011;53334;51.976;20.144;2022-08-19T01:02:43;15.10;;;11.32;;
36651;SDS011;53334;51.976;20.144;2022-08-19T01:05:18;15.05;;;12.18;;
36651;SDS011;53334;51.976;20.144;2022-08-19T01:07:54;18.40;;;12.20;;
36651;SDS011;53334;51.976;20.144;2022-08-19T01:10:31;12.77;;;11.50;;
36651;SDS011;53334;51.976;20.144;2022-08-19T01:13:09;13.63;;;12.10;;
36651;SDS011;53334;51.976;20.144;2022-08-19T01:15:45;14.00;;;12.57;;
36651;SDS011;53334;51.976;20.144;2022-08-19T01:18:24;15.50;;;11.43;;
36651;SDS011;53334;51.976;20.144;2022-08-19T01:21:02;14.77;;;11.93;;
36651;SDS011;53334;51.976;20.144;2022-08-19T01:23:42;12.88;;;11.25;;
36651;SDS011;53334;51.976;20.144;2022-08-19T01:26:18;15.68;;;11.85;;
36651;SDS011;53334;51.976;20.144;2022-08-19T01:28:55;14.02;;;12.52;;
36651;SDS011;53334;51.976;20.144;2022-08-19T01:31:31;11.45;;;10.35;;
36651;SDS011;53334;51.976;20.144;2022-08-19T01:34:06;16.77;;;12.05;;
36651;SDS011;53334;51.976;20.144;2022-08-19T01:36:42;13.32;;;11.90;;
36651;SDS011;53334;51.976;20.144;2022-08-19T01:39:21;13.18;;;11.63;;
36651;SDS011;53334;51.976;20.144;2022-08-19T01:41:57;16.15;;;11.48;;
36651;SDS011;53334;51.976;20.144;2022-08-19T01:44:34;13.18;;;11.85;;
36651;SDS011;53334;51.976;20.144;2022-08-19T01:47:09;15.32;;;12.52;;
36651;SDS011;53334;51.976;20.144;2022-08-19T01:49:44;14.18;;;11.55;;
36651;SDS011;53334;51.976;20.144;2022-08-19T01:52:18;14.70;;;11.73;;
36651;SDS011;53334;51.976;20.144;2022-08-19T01:54:53;13.38;;;12.00;;
36651;SDS011;53334;51.976;20.144;2022-08-19T01:57:27;15.15;;;12.40;;
36651;SDS011;53334;51.976;20.144;2022-08-19T02:00:03;16.98;;;11.85;;
36651;SDS011;53334;51.976;20.144;2022-08-19T02:02:42;14.57;;;12.55;;
36651;SDS011;53334;51.976;20.144;2022-08-19T02:05:16;15.93;;;11.60;;
36651;SDS011;53334;51.976;20.144;2022-08-19T02:07:52;15.93;;;11.95;;
36651;SDS011;53334;51.976;20.144;2022-08-19T02:10:28;13.27;;;11.88;;
36651;SDS011;53334;51.976;20.144;2022-08-19T02:13:02;14.60;;;11.73;;
36651;SDS011;53334;51.976;20.144;2022-08-19T02:15:36;13.77;;;12.32;;
36651;SDS011;53334;51.976;20.144;2022-08-19T02:18:11;15.30;;;12.82;;
36651;SDS011;53334;51.976;20.144;2022-08-19T02:20:45;12.65;;;11.35;;
36651;SDS011;53334;51.976;20.144;2022-08-19T02:23:20;15.23;;;12.13;;
36651;SDS011;53334;51.976;20.144;2022-08-19T02:25:55;14.57;;;12.18;;
36651;SDS011;53334;51.976;20.144;2022-08-19T02:28:29;14.13;;;11.68;;
36651;SDS011;53334;51.976;20.144;2022-08-19T02:31:08;14.20;;;11.63;;
36651;SDS011;53334;51.976;20.144;2022-08-19T02:33:43;14.07;;;11.60;;
36651;SDS011;53334;51.976;20.144;2022-08-19T02:36:17;19.45;;;12.10;;
36651;SDS011;53334;51.976;20.144;2022-08-19T02:38:52;12.90;;;11.60;;
36651;SDS011;53334;51.976;20.144;2022-08-19T02:41:29;14.38;;;12.55;;
36651;SDS011;53334;51.976;20.144;2022-08-19T02:44:05;15.68;;;11.20;;
36651;SDS011;53334;51.976;20.144;2022-08-19T02:46:59;12.80;;;11.48;;
36651;SDS011;53334;51.976;20.144;2022-08-19T02:49:33;13.35;;;11.93;;
36651;SDS011;53334;51.976;20.144;2022-08-19T02:52:07;15.77;;;12.88;;
36651;SDS011;53334;51.976;20.144;2022-08-19T02:54:42;13.90;;;11.65;;
36651;SDS011;53334;51.976;20.144;2022-08-19T02:57:19;12.35;;;10.90;;
36651;SDS011;53334;51.976;20.144;2022-08-19T02:59:53;12.57;;;11.13;;
36651;SDS011;53334;51.976;20.144;2022-08-19T03:02:27;12.68;;;11.00;;
36651;SDS011;53334;51.976;20.144;2022-08-19T03:05:02;12.98;;;11.13;;
36651;SDS011;53334;51.976;20.144;2022-08-19T03:07:36;12.90;;;11.40;;
36651;SDS011;53334;51.976;20.144;2022-08-19T03:10:11;13.60;;;11.98;;
36651;SDS011;53334;51.976;20.144;2022-08-19T03:12:47;14.25;;;10.85;;
36651;SDS011;53334;51.976;20.144;2022-08-19T03:15:21;13.75;;;12.18;;
36651;SDS011;53334;51.976;20.144;2022-08-19T03:17:54;14.50;;;12.18;;
36651;SDS011;53334;51.976;20.144;2022-08-19T03:20:28;12.00;;;10.75;;
36651;SDS011;53334;51.976;20.144;2022-08-19T03:23:02;12.70;;;11.40;;
36651;SDS011;53334;51.976;20.144;2022-08-19T03:25:37;13.60;;;10.93;;
36651;SDS011;53334;51.976;20.144;2022-08-19T03:28:16;13.45;;;11.60;;
36651;SDS011;53334;51.976;20.144;2022-08-19T03:30:55;14.30;;;12.80;;
36651;SDS011;53334;51.976;20.144;2022-08-19T03:33:32;12.57;;;11.38;;
36651;SDS011;53334;51.976;20.144;2022-08-19T03:36:08;12.27;;;10.77;;
36651;SDS011;53334;51.976;20.144;2022-08-19T03:38:44;13.98;;;12.00;;
36651;SDS011;53334;51.976;20.144;2022-08-19T03:41:27;15.88;;;11.77;;
36651;SDS011;53334;51.976;20.144;2022-08-19T03:44:19;12.80;;;10.57;;
36651;SDS011;53334;51.976;20.144;2022-08-19T03:46:55;13.07;;;11.68;;
36651;SDS011;53334;51.976;20.144;2022-08-19T03:49:31;12.77;;;11.43;;
36651;SDS011;53334;51.976;20.144;2022-08-19T03:52:07;12.25;;;10.98;;
36651;SDS011;53334;51.976;20.144;2022-08-19T03:54:41;12.40;;;11.20;;
36651;SDS011;53334;51.976;20.144;2022-08-19T03:57:16;12.60;;;11.30;;
36651;SDS011;53334;51.976;20.144;2022-08-19T03:59:52;12.57;;;11.38;;
36651;SDS011;53334;51.976;20.144;2022-08-19T04:02:35;14.85;;;11.90;;
36651;SDS011;53334;51.976;20.144;2022-08-19T04:05:09;11.57;;;10.45;;
36651;SDS011;53334;51.976;20.144;2022-08-19T04:07:44;13.13;;;11.55;;
36651;SDS011;53334;51.976;20.144;2022-08-19T04:10:20;15.57;;;11.88;;
36651;SDS011;53334;51.976;20.144;2022-08-19T04:12:55;13.27;;;11.18;;
36651;SDS011;53334;51.976;20.144;2022-08-19T04:15:31;15.50;;;11.43;;
36651;SDS011;53334;51.976;20.144;2022-08-19T04:18:11;13.77;;;11.48;;
36651;SDS011;53334;51.976;20.144;2022-08-19T04:20:46;13.80;;;11.65;;
36651;SDS011;53334;51.976;20.144;2022-08-19T04:23:22;13.98;;;11.20;;
36651;SDS011;53334;51.976;20.144;2022-08-19T04:25:56;13.75;;;11.15;;
36651;SDS011;53334;51.976;20.144;2022-08-19T04:28:30;16.00;;;11.57;;
36651;SDS011;53334;51.976;20.144;2022-08-19T04:31:06;11.98;;;10.75;;
36651;SDS011;53334;51.976;20.144;2022-08-19T04:33:45;13.73;;;11.63;;
36651;SDS011;53334;51.976;20.144;2022-08-19T04:36:20;12.43;;;11.15;;
36651;SDS011;53334;51.976;20.144;2022-08-19T04:38:57;15.07;;;10.85;;
36651;SDS011;53334;51.976;20.144;2022-08-19T04:41:32;13.27;;;11.63;;
36651;SDS011;53334;51.976;20.144;2022-08-19T04:44:24;15.93;;;12.10;;
36651;SDS011;53334;51.976;20.144;2022-08-19T04:47:05;13.23;;;11.30;;
36651;SDS011;53334;51.976;20.144;2022-08-19T04:49:42;14.60;;;10.98;;
36651;SDS011;53334;51.976;20.144;2022-08-19T04:52:16;13.80;;;11.18;;
36651;SDS011;53334;51.976;20.144;2022-08-19T04:54:50;12.05;;;10.85;;
36651;SDS011;53334;51.976;20.144;2022-08-19T04:57:24;13.35;;;11.13;;
36651;SDS011;53334;51.976;20.144;2022-08-19T04:59:58;11.93;;;10.75;;
36651;SDS011;53334;51.976;20.144;2022-08-19T05:02:33;12.48;;;10.63;;
36651;SDS011;53334;51.976;20.144;2022-08-19T05:05:08;12.70;;;11.40;;
36651;SDS011;53334;51.976;20.144;2022-08-19T05:07:42;13.02;;;11.63;;
36651;SDS011;53334;51.976;20.144;2022-08-19T05:10:16;12.02;;;10.80;;
36651;SDS011;53334;51.976;20.144;2022-08-19T05:12:50;14.57;;;11.68;;
36651;SDS011;53334;51.976;20.144;2022-08-19T05:15:25;14.85;;;11.80;;
36651;SDS011;53334;51.976;20.144;2022-08-19T05:18:00;15.23;;;11.57;;
36651;SDS011;53334;51.976;20.144;2022-08-19T05:20:48;13.10;;;11.52;;
36651;SDS011;53334;51.976;20.144;2022-08-19T05:23:39;12.25;;;10.95;;
36651;SDS011;53334;51.976;20.144;2022-08-19T05:26:13;12.73;;;11.25;;
36651;SDS011;53334;51.976;20.144;2022-08-19T05:28:47;11.85;;;10.65;;
36651;SDS011;53334;51.976;20.144;2022-08-19T05:31:25;16.50;;;10.57;;
36651;SDS011;53334;51.976;20.144;2022-08-19T05:34:01;15.90;;;11.57;;
36651;SDS011;53334;51.976;20.144;2022-08-19T05:36:49;12.85;;;11.32;;
36651;SDS011;53334;51.976;20.144;2022-08-19T05:39:29;17.05;;;11.38;;
36651;SDS011;53334;51.976;20.144;2022-08-19T05:42:06;14.73;;;11.82;;
36651;SDS011;53334;51.976;20.144;2022-08-19T05:44:42;13.80;;;10.80;;
36651;SDS011;53334;51.976;20.144;2022-08-19T05:47:17;13.00;;;11.70;;
36651;SDS011;53334;51.976;20.144;2022-08-19T05:49:53;16.98;;;12.52;;
36651;SDS011;53334;51.976;20.144;2022-08-19T05:52:28;15.73;;;11.23;;
36651;SDS011;53334;51.976;20.144;2022-08-19T05:55:02;15.30;;;12.82;;
36651;SDS011;53334;51.976;20.144;2022-08-19T05:57:37;17.75;;;13.30;;
36651;SDS011;53334;51.976;20.144;2022-08-19T06:00:11;18.67;;;12.65;;
36651;SDS011;53334;51.976;20.144;2022-08-19T06:02:46;19.35;;;12.25;;
36651;SDS011;53334;51.976;20.144;2022-08-19T06:05:22;18.15;;;13.10;;
36651;SDS011;53334;51.976;20.144;2022-08-19T06:07:56;24.50;;;12.85;;
36651;SDS011;53334;51.976;20.144;2022-08-19T06:10:31;14.88;;;13.00;;
36651;SDS011;53334;51.976;20.144;2022-08-19T06:13:08;16.90;;;13.63;;
36651;SDS011;53334;51.976;20.144;2022-08-19T06:15:42;20.73;;;12.82;;
36651;SDS011;53334;51.976;20.144;2022-08-19T06:18:18;17.73;;;11.85;;
36651;SDS011;53334;51.976;20.144;2022-08-19T06:20:53;16.23;;;12.25;;
36651;SDS011;53334;51.976;20.144;2022-08-19T06:23:27;19.80;;;11.45;;
36651;SDS011;53334;51.976;20.144;2022-08-19T06:26:02;15.38;;;11.65;;
36651;SDS011;53334;51.976;20.144;2022-08-19T06:28:36;14.77;;;11.40;;
36651;SDS011;53334;51.976;20.144;2022-08-19T06:31:19;13.93;;;10.50;;
36651;SDS011;53334;51.976;20.144;2022-08-19T06:33:54;15.93;;;11.05;;
36651;SDS011;53334;51.976;20.144;2022-08-19T06:36:32;15.98;;;11.73;;
36651;SDS011;53334;51.976;20.144;2022-08-19T06:39:13;18.85;;;11.35;;
36651;SDS011;53334;51.976;20.144;2022-08-19T06:41:49;19.70;;;11.35;;
36651;SDS011;53334;51.976;20.144;2022-08-19T06:44:29;17.90;;;11.32;;
36651;SDS011;53334;51.976;20.144;2022-08-19T06:47:14;19.65;;;11.63;;
36651;SDS011;53334;51.976;20.144;2022-08-19T06:49:56;15.40;;;11.95;;
36651;SDS011;53334;51.976;20.144;2022-08-19T06:52:37;12.55;;;10.65;;
36651;SDS011;53334;51.976;20.144;2022-08-19T06:55:12;15.50;;;11.18;;
36651;SDS011;53334;51.976;20.144;2022-08-19T06:57:46;15.27;;;11.70;;
36651;SDS011;53334;51.976;20.144;2022-08-19T07:00:20;22.92;;;12.52;;
36651;SDS011;53334;51.976;20.144;2022-08-19T07:02:54;18.33;;;11.32;;
36651;SDS011;53334;51.976;20.144;2022-08-19T07:05:38;15.98;;;10.88;;
36651;SDS011;53334;51.976;20.144;2022-08-19T07:08:18;15.20;;;11.30;;
36651;SDS011;53334;51.976;20.144;2022-08-19T07:10:52;24.40;;;11.20;;
36651;SDS011;53334;51.976;20.144;2022-08-19T07:13:27;19.10;;;11.27;;
36651;SDS011;53334;51.976;20.144;2022-08-19T07:16:02;17.35;;;11.63;;
36651;SDS011;53334;51.976;20.144;2022-08-19T07:18:38;19.77;;;11.70;;
36651;SDS011;53334;51.976;20.144;2022-08-19T07:21:16;13.07;;;10.93;;
36651;SDS011;53334;51.976;20.144;2022-08-19T07:23:55;23.13;;;11.75;;
36651;SDS011;53334;51.976;20.144;2022-08-19T07:26:37;16.90;;;11.02;;
36651;SDS011;53334;51.976;20.144;2022-08-19T07:29:13;15.13;;;10.48;;
36651;SDS011;53334;51.976;20.144;2022-08-19T07:31:49;21.75;;;10.82;;
36651;SDS011;53334;51.976;20.144;2022-08-19T07:34:25;15.25;;;11.13;;
36651;SDS011;53334;51.976;20.144;2022-08-19T07:37:00;19.17;;;11.18;;
36651;SDS011;53334;51.976;20.144;2022-08-19T07:39:37;15.60;;;10.10;;
36651;SDS011;53334;51.976;20.144;2022-08-19T07:42:12;25.85;;;11.13;;
36651;SDS011;53334;51.976;20.144;2022-08-19T07:44:46;12.32;;;10.63;;
36651;SDS011;53334;51.976;20.144;2022-08-19T07:47:21;19.27;;;10.75;;
36651;SDS011;53334;51.976;20.144;2022-08-19T07:50:16;14.30;;;11.20;;
36651;SDS011;53334;51.976;20.144;2022-08-19T07:52:51;21.63;;;12.57;;
36651;SDS011;53334;51.976;20.144;2022-08-19T07:55:27;15.05;;;12.23;;
36651;SDS011;53334;51.976;20.144;2022-08-19T07:58:14;26.00;;;13.20;;
36651;SDS011;53334;51.976;20.144;2022-08-19T08:00:50;21.77;;;12.48;;
36651;SDS011;53334;51.976;20.144;2022-08-19T08:03:24;22.73;;;11.85;;
36651;SDS011;53334;51.976;20.144;2022-08-19T08:06:14;25.35;;;11.32;;
36651;SDS011;53334;51.976;20.144;2022-08-19T08:09:06;25.55;;;11.50;;
36651;SDS011;53334;51.976;20.144;2022-08-19T08:11:49;15.15;;;11.60;;
36651;SDS011;53334;51.976;20.144;2022-08-19T08:14:26;15.43;;;10.85;;
36651;SDS011;53334;51.976;20.144;2022-08-19T08:17:07;16.70;;;11.10;;
36651;SDS011;53334;51.976;20.144;2022-08-19T08:19:42;17.65;;;10.95;;
36651;SDS011;53334;51.976;20.144;2022-08-19T08:22:17;14.35;;;10.73;;
36651;SDS011;53334;51.976;20.144;2022-08-19T08:25:08;12.65;;;9.55;;
36651;SDS011;53334;51.976;20.144;2022-08-19T08:27:46;14.82;;;9.70;;
36651;SDS011;53334;51.976;20.144;2022-08-19T08:30:26;30.35;;;10.75;;
36651;SDS011;53334;51.976;20.144;2022-08-19T08:33:03;17.77;;;10.48;;
36651;SDS011;53334;51.976;20.144;2022-08-19T08:35:38;17.50;;;9.40;;
36651;SDS011;53334;51.976;20.144;2022-08-19T08:38:14;14.75;;;9.13;;
36651;SDS011;53334;51.976;20.144;2022-08-19T08:40:50;15.73;;;8.65;;
36651;SDS011;53334;51.976;20.144;2022-08-19T08:43:38;13.20;;;8.93;;
36651;SDS011;53334;51.976;20.144;2022-08-19T08:46:18;16.35;;;9.35;;
36651;SDS011;53334;51.976;20.144;2022-08-19T08:49:04;10.70;;;8.80;;
36651;SDS011;53334;51.976;20.144;2022-08-19T08:54:33;17.83;;;8.13;;
36651;SDS011;53334;51.976;20.144;2022-08-19T08:57:11;21.13;;;8.60;;
36651;SDS011;53334;51.976;20.144;2022-08-19T08:59:50;10.85;;;8.43;;
36651;SDS011;53334;51.976;20.144;2022-08-19T09:02:26;11.13;;;8.00;;
36651;SDS011;53334;51.976;20.144;2022-08-19T09:05:00;9.63;;;8.27;;
36651;SDS011;53334;51.976;20.144;2022-08-19T09:07:39;15.02;;;9.63;;
36651;SDS011;53334;51.976;20.144;2022-08-19T09:10:23;16.98;;;9.10;;
36651;SDS011;53334;51.976;20.144;2022-08-19T09:13:05;17.08;;;7.78;;
36651;SDS011;53334;51.976;20.144;2022-08-19T09:15:52;11.18;;;8.63;;
36651;SDS011;53334;51.976;20.144;2022-08-19T09:18:38;9.65;;;7.22;;
36651;SDS011;53334;51.976;20.144;2022-08-19T09:21:14;9.50;;;7.72;;
36651;SDS011;53334;51.976;20.144;2022-08-19T09:23:48;9.25;;;7.32;;
36651;SDS011;53334;51.976;20.144;2022-08-19T09:26:23;16.10;;;8.35;;
36651;SDS011;53334;51.976;20.144;2022-08-19T09:29:18;9.85;;;7.70;;
36651;SDS011;53334;51.976;20.144;2022-08-19T09:31:54;11.20;;;8.15;;
36651;SDS011;53334;51.976;20.144;2022-08-19T09:34:29;11.50;;;7.95;;
36651;SDS011;53334;51.976;20.144;2022-08-19T09:37:08;10.25;;;7.60;;
36651;SDS011;53334;51.976;20.144;2022-08-19T09:39:46;9.10;;;6.85;;
36651;SDS011;53334;51.976;20.144;2022-08-19T09:42:20;8.13;;;7.20;;
36651;SDS011;53334;51.976;20.144;2022-08-19T09:45:06;15.35;;;7.82;;
36651;SDS011;53334;51.976;20.144;2022-08-19T09:47:42;9.15;;;7.35;;
36651;SDS011;53334;51.976;20.144;2022-08-19T09:50:18;11.52;;;6.32;;
36651;SDS011;53334;51.976;20.144;2022-08-19T09:52:52;9.73;;;7.15;;
36651;SDS011;53334;51.976;20.144;2022-08-19T09:55:28;7.90;;;7.10;;
36651;SDS011;53334;51.976;20.144;2022-08-19T09:58:03;8.23;;;6.65;;
36651;SDS011;53334;51.976;20.144;2022-08-19T10:00:37;12.05;;;7.68;;
36651;SDS011;53334;51.976;20.144;2022-08-19T10:03:13;11.75;;;7.40;;
36651;SDS011;53334;51.976;20.144;2022-08-19T10:05:48;9.63;;;6.80;;
36651;SDS011;53334;51.976;20.144;2022-08-19T10:08:26;12.75;;;6.50;;
36651;SDS011;53334;51.976;20.144;2022-08-19T10:11:02;12.18;;;7.07;;
36651;SDS011;53334;51.976;20.144;2022-08-19T10:13:57;11.38;;;7.05;;
36651;SDS011;53334;51.976;20.144;2022-08-19T10:16:32;7.50;;;6.07;;
36651;SDS011;53334;51.976;20.144;2022-08-19T10:19:11;8.23;;;6.30;;
36651;SDS011;53334;51.976;20.144;2022-08-19T10:21:56;8.85;;;5.82;;
36651;SDS011;53334;51.976;20.144;2022-08-19T10:24:31;15.25;;;6.53;;
36651;SDS011;53334;51.976;20.144;2022-08-19T10:27:06;12.35;;;7.30;;
36651;SDS011;53334;51.976;20.144;2022-08-19T10:29:41;12.60;;;7.15;;
36651;SDS011;53334;51.976;20.144;2022-08-19T10:32:17;12.10;;;6.75;;
36651;SDS011;53334;51.976;20.144;2022-08-19T10:35:07;9.88;;;6.32;;
36651;SDS011;53334;51.976;20.144;2022-08-19T10:37:41;10.20;;;6.40;;
36651;SDS011;53334;51.976;20.144;2022-08-19T10:40:31;12.52;;;6.68;;
36651;SDS011;53334;51.976;20.144;2022-08-19T10:43:05;12.98;;;6.95;;
36651;SDS011;53334;51.976;20.144;2022-08-19T10:45:39;14.65;;;6.88;;
36651;SDS011;53334;51.976;20.144;2022-08-19T10:48:23;8.02;;;6.30;;
36651;SDS011;53334;51.976;20.144;2022-08-19T10:50:59;11.15;;;6.15;;
36651;SDS011;53334;51.976;20.144;2022-08-19T10:53:54;7.20;;;5.82;;
36651;SDS011;53334;51.976;20.144;2022-08-19T10:56:28;6.70;;;5.15;;
36651;SDS011;53334;51.976;20.144;2022-08-19T10:59:21;10.35;;;5.95;;
36651;SDS011;53334;51.976;20.144;2022-08-19T11:02:06;7.85;;;6.10;;
36651;SDS011;53334;51.976;20.144;2022-08-19T11:04:43;12.65;;;6.25;;
36651;SDS011;53334;51.976;20.144;2022-08-19T11:07:18;12.40;;;5.90;;
36651;SDS011;53334;51.976;20.144;2022-08-19T11:09:52;11.48;;;7.10;;
36651;SDS011;53334;51.976;20.144;2022-08-19T11:12:27;11.57;;;5.75;;
36651;SDS011;53334;51.976;20.144;2022-08-19T11:15:01;7.72;;;5.82;;
36651;SDS011;53334;51.976;20.144;2022-08-19T11:17:35;11.57;;;6.07;;
36651;SDS011;53334;51.976;20.144;2022-08-19T11:20:12;8.27;;;6.35;;
36651;SDS011;53334;51.976;20.144;2022-08-19T11:22:50;9.98;;;5.70;;
36651;SDS011;53334;51.976;20.144;2022-08-19T11:25:25;8.73;;;5.10;;
36651;SDS011;53334;51.976;20.144;2022-08-19T11:27:59;15.25;;;5.95;;
36651;SDS011;53334;51.976;20.144;2022-08-19T11:30:33;9.55;;;6.47;;
36651;SDS011;53334;51.976;20.144;2022-08-19T11:33:07;13.02;;;6.13;;
36651;SDS011;53334;51.976;20.144;2022-08-19T11:35:42;9.90;;;5.65;;
36651;SDS011;53334;51.976;20.144;2022-08-19T11:38:18;10.32;;;6.22;;
36651;SDS011;53334;51.976;20.144;2022-08-19T11:40:56;9.35;;;5.78;;
36651;SDS011;53334;51.976;20.144;2022-08-19T11:43:31;13.10;;;6.55;;
36651;SDS011;53334;51.976;20.144;2022-08-19T11:46:09;11.00;;;6.25;;
36651;SDS011;53334;51.976;20.144;2022-08-19T11:48:45;7.82;;;5.35;;
36651;SDS011;53334;51.976;20.144;2022-08-19T11:51:20;11.65;;;6.47;;
36651;SDS011;53334;51.976;20.144;2022-08-19T11:53:58;9.57;;;5.00;;
36651;SDS011;53334;51.976;20.144;2022-08-19T11:56:33;10.07;;;5.68;;
36651;SDS011;53334;51.976;20.144;2022-08-19T11:59:07;11.65;;;6.13;;
36651;SDS011;53334;51.976;20.144;2022-08-19T12:01:45;11.57;;;5.60;;
36651;SDS011;53334;51.976;20.144;2022-08-19T12:04:19;16.45;;;5.95;;
36651;SDS011;53334;51.976;20.144;2022-08-19T12:06:53;13.82;;;6.60;;
36651;SDS011;53334;51.976;20.144;2022-08-19T12:09:29;9.90;;;5.97;;
36651;SDS011;53334;51.976;20.144;2022-08-19T12:12:06;9.15;;;5.15;;
36651;SDS011;53334;51.976;20.144;2022-08-19T12:14:40;12.20;;;6.40;;
36651;SDS011;53334;51.976;20.144;2022-08-19T12:17:14;16.70;;;6.28;;
36651;SDS011;53334;51.976;20.144;2022-08-19T12:19:48;19.33;;;6.53;;
36651;SDS011;53334;51.976;20.144;2022-08-19T12:22:22;18.23;;;6.03;;
36651;SDS011;53334;51.976;20.144;2022-08-19T12:24:58;19.77;;;6.13;;
36651;SDS011;53334;51.976;20.144;2022-08-19T12:27:32;16.70;;;6.18;;
36651;SDS011;53334;51.976;20.144;2022-08-19T12:30:12;15.68;;;6.68;;
36651;SDS011;53334;51.976;20.144;2022-08-19T12:32:47;11.35;;;5.53;;
36651;SDS011;53334;51.976;20.144;2022-08-19T12:35:22;13.20;;;5.72;;
36651;SDS011;53334;51.976;20.144;2022-08-19T12:37:57;11.82;;;5.10;;
36651;SDS011;53334;51.976;20.144;2022-08-19T12:40:33;8.93;;;5.68;;
36651;SDS011;53334;51.976;20.144;2022-08-19T12:43:07;8.80;;;5.35;;
36651;SDS011;53334;51.976;20.144;2022-08-19T12:45:44;11.52;;;5.60;;
36651;SDS011;53334;51.976;20.144;2022-08-19T12:48:18;8.15;;;5.78;;
36651;SDS011;53334;51.976;20.144;2022-08-19T12:51:06;8.50;;;5.15;;
36651;SDS011;53334;51.976;20.144;2022-08-19T12:53:41;8.07;;;5.82;;
36651;SDS011;53334;51.976;20.144;2022-08-19T12:56:17;8.55;;;5.15;;
36651;SDS011;53334;51.976;20.144;2022-08-19T12:58:54;7.20;;;5.43;;
36651;SDS011;53334;51.976;20.144;2022-08-19T13:01:28;8.43;;;5.22;;
36651;SDS011;53334;51.976;20.144;2022-08-19T13:04:04;7.75;;;5.13;;
36651;SDS011;53334;51.976;20.144;2022-08-19T13:06:38;5.28;;;4.63;;
36651;SDS011;53334;51.976;20.144;2022-08-19T13:09:13;8.73;;;5.45;;
36651;SDS011;53334;51.976;20.144;2022-08-19T13:11:48;12.98;;;5.55;;
36651;SDS011;53334;51.976;20.144;2022-08-19T13:14:22;5.63;;;4.90;;
36651;SDS011;53334;51.976;20.144;2022-08-19T13:16:58;6.32;;;4.65;;
36651;SDS011;53334;51.976;20.144;2022-08-19T13:19:32;9.32;;;4.63;;
36651;SDS011;53334;51.976;20.144;2022-08-19T13:22:06;8.60;;;5.22;;
36651;SDS011;53334;51.976;20.144;2022-08-19T13:24:45;5.47;;;4.93;;
36651;SDS011;53334;51.976;20.144;2022-08-19T13:27:21;7.75;;;4.97;;
36651;SDS011;53334;51.976;20.144;2022-08-19T13:29:55;6.95;;;5.28;;
36651;SDS011;53334;51.976;20.144;2022-08-19T13:32:46;8.35;;;5.18;;
36651;SDS011;53334;51.976;20.144;2022-08-19T13:35:34;9.95;;;4.78;;
36651;SDS011;53334;51.976;20.144;2022-08-19T13:38:08;15.80;;;5.97;;
36651;SDS011;53334;51.976;20.144;2022-08-19T13:40:43;6.85;;;4.63;;
36651;SDS011;53334;51.976;20.144;2022-08-19T13:43:20;19.95;;;5.97;;
36651;SDS011;53334;51.976;20.144;2022-08-19T13:45:56;5.40;;;4.82;;
36651;SDS011;53334;51.976;20.144;2022-08-19T13:48:30;7.35;;;5.60;;
36651;SDS011;53334;51.976;20.144;2022-08-19T13:51:05;10.23;;;4.57;;
36651;SDS011;53334;51.976;20.144;2022-08-19T13:53:41;6.18;;;4.95;;
36651;SDS011;53334;51.976;20.144;2022-08-19T13:56:19;7.68;;;5.28;;
36651;SDS011;53334;51.976;20.144;2022-08-19T13:58:58;7.32;;;5.18;;
36651;SDS011;53334;51.976;20.144;2022-08-19T14:01:32;10.68;;;5.35;;
36651;SDS011;53334;51.976;20.144;2022-08-19T14:04:06;6.38;;;4.57;;
36651;SDS011;53334;51.976;20.144;2022-08-19T14:06:40;7.63;;;5.25;;
36651;SDS011;53334;51.976;20.144;2022-08-19T14:09:15;7.50;;;5.15;;
36651;SDS011;53334;51.976;20.144;2022-08-19T14:11:48;6.82;;;4.78;;
36651;SDS011;53334;51.976;20.144;2022-08-19T14:14:24;6.50;;;4.03;;
36651;SDS011;53334;51.976;20.144;2022-08-19T14:16:58;9.10;;;4.95;;
36651;SDS011;53334;51.976;20.144;2022-08-19T14:19:32;7.65;;;5.05;;
36651;SDS011;53334;51.976;20.144;2022-08-19T14:22:11;6.57;;;4.35;;
36651;SDS011;53334;51.976;20.144;2022-08-19T14:24:52;7.40;;;4.97;;
36651;SDS011;53334;51.976;20.144;2022-08-19T14:27:26;10.05;;;4.78;;
36651;SDS011;53334;51.976;20.144;2022-08-19T14:30:02;8.57;;;4.93;;
36651;SDS011;53334;51.976;20.144;2022-08-19T14:32:38;6.53;;;5.50;;
36651;SDS011;53334;51.976;20.144;2022-08-19T14:35:15;7.28;;;4.68;;
36651;SDS011;53334;51.976;20.144;2022-08-19T14:37:50;10.45;;;5.45;;
36651;SDS011;53334;51.976;20.144;2022-08-19T14:40:28;8.80;;;4.22;;
36651;SDS011;53334;51.976;20.144;2022-08-19T14:43:03;5.93;;;4.07;;
36651;SDS011;53334;51.976;20.144;2022-08-19T14:45:39;6.30;;;4.80;;
36651;SDS011;53334;51.976;20.144;2022-08-19T14:48:14;4.85;;;4.35;;
36651;SDS011;53334;51.976;20.144;2022-08-19T14:50:51;5.38;;;4.40;;
36651;SDS011;53334;51.976;20.144;2022-08-19T14:53:25;4.90;;;4.40;;
36651;SDS011;53334;51.976;20.144;2022-08-19T14:55:59;7.68;;;4.50;;
36651;SDS011;53334;51.976;20.144;2022-08-19T14:58:33;5.40;;;4.22;;
36651;SDS011;53334;51.976;20.144;2022-08-19T15:01:11;3.78;;;3.42;;
36651;SDS011;53334;51.976;20.144;2022-08-19T15:03:46;6.95;;;4.47;;
36651;SDS011;53334;51.976;20.144;2022-08-19T15:06:21;5.25;;;3.88;;
36651;SDS011;53334;51.976;20.144;2022-08-19T15:08:56;3.67;;;3.38;;
36651;SDS011;53334;51.976;20.144;2022-08-19T15:11:35;4.32;;;3.92;;
36651;SDS011;53334;51.976;20.144;2022-08-19T15:14:10;4.65;;;4.15;;
36651;SDS011;53334;51.976;20.144;2022-08-19T15:16:47;6.32;;;3.70;;